sensor_id;sensor_type;location;lat;lon;timestamp;P1;durP1;ratioP1;P2;durP2;ratioP2
52126;SDS011;38120;53.176;6.614;2022-07-29T00:01:48;3.42;;;1.27;;
52126;SDS011;38120;53.176;6.614;2022-07-29T00:04:14;5.13;;;1.67;;
52126;SDS011;38120;53.176;6.614;2022-07-29T00:06:39;3.70;;;1.40;;
52126;SDS011;38120;53.176;6.614;2022-07-29T00:09:05;3.72;;;0.98;;
52126;SDS011;38120;53.176;6.614;2022-07-29T00:11:31;3.28;;;1.38;;
52126;SDS011;38120;53.176;6.614;2022-07-29T00:13:57;2.65;;;1.13;;
52126;SDS011;38120;53.176;6.614;2022-07-29T00:16:23;4.68;;;1.88;;
52126;SDS011;38120;53.176;6.614;2022-07-29T00:18:49;3.47;;;1.40;;
52126;SDS011;38120;53.176;6.614;2022-07-29T00:21:14;6.20;;;1.63;;
52126;SDS011;38120;53.176;6.614;2022-07-29T00:23:40;2.67;;;1.40;;
52126;SDS011;38120;53.176;6.614;2022-07-29T00:26:05;3.90;;;1.85;;
52126;SDS011;38120;53.176;6.614;2022-07-29T00:28:31;6.93;;;1.60;;
52126;SDS011;38120;53.176;6.614;2022-07-29T00:30:57;4.60;;;1.60;;
52126;SDS011;38120;53.176;6.614;2022-07-29T00:33:23;3.05;;;1.73;;
52126;SDS011;38120;53.176;6.614;2022-07-29T00:35:48;4.78;;;2.05;;
52126;SDS011;38120;53.176;6.614;2022-07-29T00:38:15;3.05;;;1.63;;
52126;SDS011;38120;53.176;6.614;2022-07-29T00:40:43;3.95;;;1.52;;
52126;SDS011;38120;53.176;6.614;2022-07-29T00:43:10;3.03;;;1.38;;
52126;SDS011;38120;53.176;6.614;2022-07-29T00:45:37;3.53;;;1.20;;
52126;SDS011;38120;53.176;6.614;2022-07-29T00:48:02;4.32;;;1.85;;
52126;SDS011;38120;53.176;6.614;2022-07-29T00:50:30;2.90;;;1.60;;
52126;SDS011;38120;53.176;6.614;2022-07-29T00:52:57;5.70;;;1.92;;
52126;SDS011;38120;53.176;6.614;2022-07-29T00:55:23;2.83;;;1.38;;
52126;SDS011;38120;53.176;6.614;2022-07-29T00:57:49;4.80;;;1.83;;
52126;SDS011;38120;53.176;6.614;2022-07-29T01:00:22;4.82;;;2.00;;
52126;SDS011;38120;53.176;6.614;2022-07-29T01:02:50;3.65;;;2.03;;
52126;SDS011;38120;53.176;6.614;2022-07-29T01:05:26;4.25;;;2.00;;
52126;SDS011;38120;53.176;6.614;2022-07-29T01:10:19;3.72;;;1.70;;
52126;SDS011;38120;53.176;6.614;2022-07-29T01:12:46;3.28;;;1.58;;
52126;SDS011;38120;53.176;6.614;2022-07-29T01:15:15;4.00;;;1.80;;
52126;SDS011;38120;53.176;6.614;2022-07-29T01:17:45;5.20;;;1.77;;
52126;SDS011;38120;53.176;6.614;2022-07-29T01:26:52;8.70;;;2.30;;
52126;SDS011;38120;53.176;6.614;2022-07-29T01:29:11;3.90;;;2.08;;
52126;SDS011;38120;53.176;6.614;2022-07-29T01:31:48;4.97;;;1.88;;
52126;SDS011;38120;53.176;6.614;2022-07-29T01:36:57;5.07;;;2.00;;
52126;SDS011;38120;53.176;6.614;2022-07-29T01:39:37;5.88;;;1.95;;
52126;SDS011;38120;53.176;6.614;2022-07-29T01:44:34;5.15;;;2.40;;
52126;SDS011;38120;53.176;6.614;2022-07-29T01:47:07;4.75;;;2.50;;
52126;SDS011;38120;53.176;6.614;2022-07-29T01:49:39;6.95;;;2.28;;
52126;SDS011;38120;53.176;6.614;2022-07-29T01:52:13;4.45;;;2.08;;
52126;SDS011;38120;53.176;6.614;2022-07-29T01:54:53;6.97;;;2.50;;
52126;SDS011;38120;53.176;6.614;2022-07-29T01:57:24;4.78;;;2.30;;
52126;SDS011;38120;53.176;6.614;2022-07-29T01:59:52;5.68;;;2.13;;
52126;SDS011;38120;53.176;6.614;2022-07-29T02:02:19;6.07;;;2.42;;
52126;SDS011;38120;53.176;6.614;2022-07-29T02:04:48;5.63;;;2.08;;
52126;SDS011;38120;53.176;6.614;2022-07-29T02:07:19;6.07;;;2.75;;
52126;SDS011;38120;53.176;6.614;2022-07-29T02:09:47;4.03;;;1.75;;
52126;SDS011;38120;53.176;6.614;2022-07-29T02:12:16;5.07;;;2.03;;
52126;SDS011;38120;53.176;6.614;2022-07-29T02:14:48;4.10;;;2.13;;
52126;SDS011;38120;53.176;6.614;2022-07-29T02:17:20;5.75;;;2.00;;
52126;SDS011;38120;53.176;6.614;2022-07-29T02:19:56;5.75;;;2.38;;
52126;SDS011;38120;53.176;6.614;2022-07-29T02:22:26;5.68;;;2.10;;
52126;SDS011;38120;53.176;6.614;2022-07-29T02:24:54;5.07;;;1.65;;
52126;SDS011;38120;53.176;6.614;2022-07-29T02:27:21;6.30;;;2.03;;
52126;SDS011;38120;53.176;6.614;2022-07-29T02:29:48;4.18;;;1.60;;
52126;SDS011;38120;53.176;6.614;2022-07-29T02:32:15;3.13;;;1.60;;
52126;SDS011;38120;53.176;6.614;2022-07-29T02:34:42;5.53;;;2.15;;
52126;SDS011;38120;53.176;6.614;2022-07-29T02:37:10;5.40;;;1.90;;
52126;SDS011;38120;53.176;6.614;2022-07-29T02:39:37;4.75;;;1.95;;
52126;SDS011;38120;53.176;6.614;2022-07-29T02:42:07;3.78;;;1.88;;
52126;SDS011;38120;53.176;6.614;2022-07-29T02:44:37;5.72;;;2.08;;
52126;SDS011;38120;53.176;6.614;2022-07-29T02:49:35;4.32;;;2.22;;
52126;SDS011;38120;53.176;6.614;2022-07-29T02:52:02;5.70;;;1.80;;
52126;SDS011;38120;53.176;6.614;2022-07-29T02:54:38;6.03;;;2.35;;
52126;SDS011;38120;53.176;6.614;2022-07-29T03:00:05;4.50;;;1.52;;
52126;SDS011;38120;53.176;6.614;2022-07-29T03:02:34;3.55;;;1.73;;
52126;SDS011;38120;53.176;6.614;2022-07-29T03:05:03;4.90;;;2.30;;
52126;SDS011;38120;53.176;6.614;2022-07-29T03:07:31;5.35;;;2.10;;
52126;SDS011;38120;53.176;6.614;2022-07-29T03:09:59;4.43;;;2.00;;
52126;SDS011;38120;53.176;6.614;2022-07-29T03:12:26;4.88;;;1.83;;
52126;SDS011;38120;53.176;6.614;2022-07-29T03:14:53;4.53;;;1.88;;
52126;SDS011;38120;53.176;6.614;2022-07-29T03:17:20;6.15;;;1.88;;
52126;SDS011;38120;53.176;6.614;2022-07-29T03:19:47;4.18;;;1.95;;
52126;SDS011;38120;53.176;6.614;2022-07-29T03:22:13;3.20;;;2.00;;
52126;SDS011;38120;53.176;6.614;2022-07-29T03:24:39;4.47;;;1.35;;
52126;SDS011;38120;53.176;6.614;2022-07-29T03:27:05;5.72;;;2.15;;
52126;SDS011;38120;53.176;6.614;2022-07-29T03:29:31;4.72;;;1.98;;
52126;SDS011;38120;53.176;6.614;2022-07-29T03:31:57;8.38;;;2.60;;
52126;SDS011;38120;53.176;6.614;2022-07-29T03:34:23;5.93;;;1.80;;
52126;SDS011;38120;53.176;6.614;2022-07-29T03:36:49;4.77;;;2.00;;
52126;SDS011;38120;53.176;6.614;2022-07-29T03:41:43;5.43;;;2.15;;
52126;SDS011;38120;53.176;6.614;2022-07-29T03:44:10;4.50;;;1.60;;
52126;SDS011;38120;53.176;6.614;2022-07-29T03:46:38;5.05;;;2.15;;
52126;SDS011;38120;53.176;6.614;2022-07-29T03:49:06;5.68;;;1.92;;
52126;SDS011;38120;53.176;6.614;2022-07-29T03:51:33;3.97;;;2.13;;
52126;SDS011;38120;53.176;6.614;2022-07-29T03:56:27;3.63;;;1.93;;
52126;SDS011;38120;53.176;6.614;2022-07-29T03:58:54;6.47;;;2.40;;
52126;SDS011;38120;53.176;6.614;2022-07-29T04:03:46;10.05;;;2.08;;
52126;SDS011;38120;53.176;6.614;2022-07-29T04:06:12;3.22;;;1.90;;
52126;SDS011;38120;53.176;6.614;2022-07-29T04:08:38;5.38;;;1.88;;
52126;SDS011;38120;53.176;6.614;2022-07-29T04:11:03;6.22;;;2.65;;
52126;SDS011;38120;53.176;6.614;2022-07-29T04:13:30;6.10;;;2.03;;
52126;SDS011;38120;53.176;6.614;2022-07-29T04:18:22;4.82;;;2.08;;
52126;SDS011;38120;53.176;6.614;2022-07-29T04:20:48;5.13;;;2.17;;
52126;SDS011;38120;53.176;6.614;2022-07-29T04:23:14;5.93;;;2.25;;
52126;SDS011;38120;53.176;6.614;2022-07-29T04:25:40;5.10;;;2.20;;
52126;SDS011;38120;53.176;6.614;2022-07-29T04:28:07;4.55;;;2.00;;
52126;SDS011;38120;53.176;6.614;2022-07-29T04:30:33;6.85;;;2.50;;
52126;SDS011;38120;53.176;6.614;2022-07-29T04:33:04;4.95;;;2.03;;
52126;SDS011;38120;53.176;6.614;2022-07-29T04:35:31;4.00;;;2.17;;
52126;SDS011;38120;53.176;6.614;2022-07-29T04:38:00;3.95;;;2.00;;
52126;SDS011;38120;53.176;6.614;2022-07-29T04:40:25;5.88;;;2.40;;
52126;SDS011;38120;53.176;6.614;2022-07-29T04:42:51;6.57;;;2.25;;
52126;SDS011;38120;53.176;6.614;2022-07-29T04:45:17;4.47;;;2.07;;
52126;SDS011;38120;53.176;6.614;2022-07-29T04:47:42;5.00;;;1.80;;
52126;SDS011;38120;53.176;6.614;2022-07-29T04:50:08;7.53;;;2.07;;
52126;SDS011;38120;53.176;6.614;2022-07-29T04:52:35;4.32;;;1.90;;
52126;SDS011;38120;53.176;6.614;2022-07-29T04:57:28;4.18;;;1.88;;
52126;SDS011;38120;53.176;6.614;2022-07-29T04:59:53;5.15;;;2.33;;
52126;SDS011;38120;53.176;6.614;2022-07-29T05:02:19;4.30;;;2.00;;
52126;SDS011;38120;53.176;6.614;2022-07-29T05:04:45;4.53;;;1.98;;
52126;SDS011;38120;53.176;6.614;2022-07-29T05:07:10;6.47;;;2.10;;
52126;SDS011;38120;53.176;6.614;2022-07-29T05:09:36;4.95;;;2.08;;
52126;SDS011;38120;53.176;6.614;2022-07-29T05:12:02;5.90;;;2.03;;
52126;SDS011;38120;53.176;6.614;2022-07-29T05:14:27;5.30;;;2.28;;
52126;SDS011;38120;53.176;6.614;2022-07-29T05:16:53;3.67;;;1.88;;
52126;SDS011;38120;53.176;6.614;2022-07-29T05:19:21;3.80;;;2.00;;
52126;SDS011;38120;53.176;6.614;2022-07-29T05:21:48;4.57;;;2.25;;
52126;SDS011;38120;53.176;6.614;2022-07-29T05:26:40;5.18;;;2.10;;
52126;SDS011;38120;53.176;6.614;2022-07-29T05:29:06;5.57;;;2.40;;
52126;SDS011;38120;53.176;6.614;2022-07-29T05:31:31;3.03;;;1.73;;
52126;SDS011;38120;53.176;6.614;2022-07-29T05:33:58;5.25;;;2.17;;
52126;SDS011;38120;53.176;6.614;2022-07-29T05:36:24;4.63;;;1.92;;
52126;SDS011;38120;53.176;6.614;2022-07-29T05:38:50;6.20;;;1.93;;
52126;SDS011;38120;53.176;6.614;2022-07-29T05:41:17;6.05;;;2.15;;
52126;SDS011;38120;53.176;6.614;2022-07-29T05:46:09;3.95;;;2.10;;
52126;SDS011;38120;53.176;6.614;2022-07-29T05:48:34;4.80;;;2.30;;
52126;SDS011;38120;53.176;6.614;2022-07-29T05:51:00;6.45;;;2.33;;
52126;SDS011;38120;53.176;6.614;2022-07-29T05:53:26;6.05;;;2.50;;
52126;SDS011;38120;53.176;6.614;2022-07-29T05:55:52;6.28;;;2.42;;
52126;SDS011;38120;53.176;6.614;2022-07-29T05:58:18;5.70;;;2.38;;
52126;SDS011;38120;53.176;6.614;2022-07-29T06:00:44;4.88;;;2.20;;
52126;SDS011;38120;53.176;6.614;2022-07-29T06:03:10;9.63;;;2.78;;
52126;SDS011;38120;53.176;6.614;2022-07-29T06:05:36;6.00;;;3.03;;
52126;SDS011;38120;53.176;6.614;2022-07-29T06:08:02;5.28;;;2.47;;
52126;SDS011;38120;53.176;6.614;2022-07-29T06:10:30;5.10;;;2.30;;
52126;SDS011;38120;53.176;6.614;2022-07-29T06:12:56;7.30;;;2.55;;
52126;SDS011;38120;53.176;6.614;2022-07-29T06:15:21;6.50;;;2.23;;
52126;SDS011;38120;53.176;6.614;2022-07-29T06:17:47;5.33;;;2.53;;
52126;SDS011;38120;53.176;6.614;2022-07-29T06:20:13;6.35;;;2.13;;
52126;SDS011;38120;53.176;6.614;2022-07-29T06:22:39;5.20;;;2.22;;
52126;SDS011;38120;53.176;6.614;2022-07-29T06:25:05;3.35;;;1.65;;
52126;SDS011;38120;53.176;6.614;2022-07-29T06:27:31;6.18;;;2.55;;
52126;SDS011;38120;53.176;6.614;2022-07-29T06:29:56;5.90;;;2.33;;
52126;SDS011;38120;53.176;6.614;2022-07-29T06:32:22;10.95;;;2.42;;
52126;SDS011;38120;53.176;6.614;2022-07-29T06:34:47;3.15;;;1.88;;
52126;SDS011;38120;53.176;6.614;2022-07-29T06:37:13;7.60;;;2.33;;
52126;SDS011;38120;53.176;6.614;2022-07-29T06:39:39;6.72;;;2.25;;
52126;SDS011;38120;53.176;6.614;2022-07-29T06:42:05;5.75;;;2.03;;
52126;SDS011;38120;53.176;6.614;2022-07-29T06:44:31;6.68;;;2.47;;
52126;SDS011;38120;53.176;6.614;2022-07-29T06:46:59;4.07;;;2.28;;
52126;SDS011;38120;53.176;6.614;2022-07-29T06:49:27;4.38;;;1.98;;
52126;SDS011;38120;53.176;6.614;2022-07-29T06:51:54;4.45;;;2.35;;
52126;SDS011;38120;53.176;6.614;2022-07-29T06:54:20;11.65;;;2.20;;
52126;SDS011;38120;53.176;6.614;2022-07-29T06:56:46;5.93;;;2.28;;
52126;SDS011;38120;53.176;6.614;2022-07-29T06:59:13;5.03;;;1.80;;
52126;SDS011;38120;53.176;6.614;2022-07-29T07:01:40;6.20;;;2.30;;
52126;SDS011;38120;53.176;6.614;2022-07-29T07:04:07;6.25;;;2.05;;
52126;SDS011;38120;53.176;6.614;2022-07-29T07:06:36;14.00;;;2.42;;
52126;SDS011;38120;53.176;6.614;2022-07-29T07:09:03;6.15;;;2.40;;
52126;SDS011;38120;53.176;6.614;2022-07-29T07:11:28;3.90;;;1.95;;
52126;SDS011;38120;53.176;6.614;2022-07-29T07:13:54;3.75;;;2.00;;
52126;SDS011;38120;53.176;6.614;2022-07-29T07:16:20;6.05;;;2.33;;
52126;SDS011;38120;53.176;6.614;2022-07-29T07:18:45;7.72;;;2.83;;
52126;SDS011;38120;53.176;6.614;2022-07-29T07:21:11;7.38;;;2.10;;
52126;SDS011;38120;53.176;6.614;2022-07-29T07:23:37;8.20;;;2.58;;
52126;SDS011;38120;53.176;6.614;2022-07-29T07:26:03;3.72;;;1.98;;
52126;SDS011;38120;53.176;6.614;2022-07-29T07:28:30;5.70;;;2.50;;
52126;SDS011;38120;53.176;6.614;2022-07-29T07:30:56;4.75;;;2.13;;
52126;SDS011;38120;53.176;6.614;2022-07-29T07:33:22;6.40;;;2.03;;
52126;SDS011;38120;53.176;6.614;2022-07-29T07:35:47;4.78;;;2.17;;
52126;SDS011;38120;53.176;6.614;2022-07-29T07:38:13;5.13;;;1.95;;
52126;SDS011;38120;53.176;6.614;2022-07-29T07:40:40;5.38;;;2.30;;
52126;SDS011;38120;53.176;6.614;2022-07-29T07:43:05;6.20;;;2.30;;
52126;SDS011;38120;53.176;6.614;2022-07-29T07:45:31;6.80;;;2.10;;
52126;SDS011;38120;53.176;6.614;2022-07-29T07:48:02;4.55;;;2.05;;
52126;SDS011;38120;53.176;6.614;2022-07-29T07:50:28;7.05;;;1.95;;
52126;SDS011;38120;53.176;6.614;2022-07-29T07:52:54;3.88;;;2.05;;
52126;SDS011;38120;53.176;6.614;2022-07-29T07:55:24;5.22;;;1.90;;
52126;SDS011;38120;53.176;6.614;2022-07-29T08:00:16;3.85;;;2.08;;
52126;SDS011;38120;53.176;6.614;2022-07-29T08:02:42;4.55;;;2.30;;
52126;SDS011;38120;53.176;6.614;2022-07-29T08:05:10;5.65;;;2.42;;
52126;SDS011;38120;53.176;6.614;2022-07-29T08:07:37;7.30;;;2.40;;
52126;SDS011;38120;53.176;6.614;2022-07-29T08:10:04;5.20;;;2.00;;
52126;SDS011;38120;53.176;6.614;2022-07-29T08:12:30;4.28;;;2.63;;
52126;SDS011;38120;53.176;6.614;2022-07-29T08:14:55;8.75;;;2.22;;
52126;SDS011;38120;53.176;6.614;2022-07-29T08:17:21;6.28;;;2.50;;
52126;SDS011;38120;53.176;6.614;2022-07-29T08:19:47;7.65;;;2.58;;
52126;SDS011;38120;53.176;6.614;2022-07-29T08:22:13;4.40;;;2.30;;
52126;SDS011;38120;53.176;6.614;2022-07-29T08:24:39;3.88;;;2.28;;
52126;SDS011;38120;53.176;6.614;2022-07-29T08:27:07;5.47;;;2.40;;
52126;SDS011;38120;53.176;6.614;2022-07-29T08:29:34;4.97;;;2.40;;
52126;SDS011;38120;53.176;6.614;2022-07-29T08:31:59;8.10;;;2.33;;
52126;SDS011;38120;53.176;6.614;2022-07-29T08:34:25;5.00;;;2.40;;
52126;SDS011;38120;53.176;6.614;2022-07-29T08:36:51;6.03;;;2.30;;
52126;SDS011;38120;53.176;6.614;2022-07-29T08:39:17;5.20;;;2.75;;
52126;SDS011;38120;53.176;6.614;2022-07-29T08:41:42;6.90;;;2.38;;
52126;SDS011;38120;53.176;6.614;2022-07-29T08:44:08;5.00;;;2.58;;
52126;SDS011;38120;53.176;6.614;2022-07-29T08:46:37;7.07;;;2.80;;
52126;SDS011;38120;53.176;6.614;2022-07-29T08:49:03;6.47;;;2.63;;
52126;SDS011;38120;53.176;6.614;2022-07-29T08:51:29;7.03;;;3.00;;
52126;SDS011;38120;53.176;6.614;2022-07-29T08:53:57;5.38;;;2.50;;
52126;SDS011;38120;53.176;6.614;2022-07-29T08:56:23;7.50;;;2.92;;
52126;SDS011;38120;53.176;6.614;2022-07-29T08:58:49;6.55;;;2.55;;
52126;SDS011;38120;53.176;6.614;2022-07-29T09:01:16;6.13;;;2.30;;
52126;SDS011;38120;53.176;6.614;2022-07-29T09:03:46;6.20;;;2.28;;
52126;SDS011;38120;53.176;6.614;2022-07-29T09:06:16;7.03;;;2.92;;
52126;SDS011;38120;53.176;6.614;2022-07-29T09:08:44;8.27;;;2.67;;
52126;SDS011;38120;53.176;6.614;2022-07-29T09:11:11;6.00;;;2.72;;
52126;SDS011;38120;53.176;6.614;2022-07-29T09:13:37;10.40;;;2.25;;
52126;SDS011;38120;53.176;6.614;2022-07-29T09:16:03;5.95;;;2.78;;
52126;SDS011;38120;53.176;6.614;2022-07-29T09:21:12;5.97;;;2.47;;
52126;SDS011;38120;53.176;6.614;2022-07-29T09:24:05;6.45;;;2.78;;
52126;SDS011;38120;53.176;6.614;2022-07-29T09:26:33;5.93;;;2.70;;
52126;SDS011;38120;53.176;6.614;2022-07-29T09:29:07;5.55;;;2.90;;
52126;SDS011;38120;53.176;6.614;2022-07-29T09:31:36;6.47;;;2.67;;
52126;SDS011;38120;53.176;6.614;2022-07-29T09:34:03;6.35;;;3.03;;
52126;SDS011;38120;53.176;6.614;2022-07-29T09:36:29;6.45;;;3.35;;
52126;SDS011;38120;53.176;6.614;2022-07-29T09:39:02;8.77;;;2.90;;
52126;SDS011;38120;53.176;6.614;2022-07-29T09:41:28;7.88;;;2.60;;
52126;SDS011;38120;53.176;6.614;2022-07-29T09:43:56;7.55;;;2.75;;
52126;SDS011;38120;53.176;6.614;2022-07-29T09:46:23;8.00;;;2.85;;
52126;SDS011;38120;53.176;6.614;2022-07-29T09:49:05;6.63;;;2.83;;
52126;SDS011;38120;53.176;6.614;2022-07-29T09:51:33;9.45;;;2.95;;
52126;SDS011;38120;53.176;6.614;2022-07-29T09:53:59;8.38;;;2.78;;
52126;SDS011;38120;53.176;6.614;2022-07-29T09:56:38;7.53;;;2.75;;
52126;SDS011;38120;53.176;6.614;2022-07-29T09:59:05;6.55;;;2.75;;
52126;SDS011;38120;53.176;6.614;2022-07-29T10:01:31;5.38;;;2.75;;
52126;SDS011;38120;53.176;6.614;2022-07-29T10:03:57;5.57;;;2.50;;
52126;SDS011;38120;53.176;6.614;2022-07-29T10:06:23;5.38;;;3.17;;
52126;SDS011;38120;53.176;6.614;2022-07-29T10:08:49;8.07;;;2.95;;
52126;SDS011;38120;53.176;6.614;2022-07-29T10:11:16;8.02;;;3.22;;
52126;SDS011;38120;53.176;6.614;2022-07-29T10:13:43;6.25;;;2.92;;
52126;SDS011;38120;53.176;6.614;2022-07-29T10:16:10;6.13;;;2.80;;
52126;SDS011;38120;53.176;6.614;2022-07-29T10:18:37;5.28;;;2.55;;
52126;SDS011;38120;53.176;6.614;2022-07-29T10:21:04;7.57;;;2.97;;
52126;SDS011;38120;53.176;6.614;2022-07-29T10:23:30;5.57;;;2.65;;
52126;SDS011;38120;53.176;6.614;2022-07-29T10:25:56;6.40;;;2.70;;
52126;SDS011;38120;53.176;6.614;2022-07-29T10:28:22;6.13;;;3.30;;
52126;SDS011;38120;53.176;6.614;2022-07-29T10:30:49;7.80;;;2.78;;
52126;SDS011;38120;53.176;6.614;2022-07-29T10:41:53;5.72;;;3.17;;
52126;SDS011;38120;53.176;6.614;2022-07-29T10:44:30;7.72;;;2.70;;
52126;SDS011;38120;53.176;6.614;2022-07-29T10:46:58;6.80;;;2.80;;
52126;SDS011;38120;53.176;6.614;2022-07-29T10:49:27;7.47;;;2.78;;
52126;SDS011;38120;53.176;6.614;2022-07-29T10:57:12;9.70;;;3.10;;
52126;SDS011;38120;53.176;6.614;2022-07-29T11:05:03;6.88;;;3.20;;
52126;SDS011;38120;53.176;6.614;2022-07-29T11:07:30;5.88;;;3.10;;
52126;SDS011;38120;53.176;6.614;2022-07-29T11:15:03;5.78;;;2.70;;
52126;SDS011;38120;53.176;6.614;2022-07-29T11:20:34;7.85;;;3.30;;
52126;SDS011;38120;53.176;6.614;2022-07-29T11:23:19;6.53;;;2.97;;
52126;SDS011;38120;53.176;6.614;2022-07-29T11:28:34;5.05;;;2.83;;
52126;SDS011;38120;53.176;6.614;2022-07-29T11:31:16;8.38;;;3.55;;
52126;SDS011;38120;53.176;6.614;2022-07-29T11:34:16;6.15;;;2.70;;
52126;SDS011;38120;53.176;6.614;2022-07-29T11:47:23;7.47;;;3.50;;
52126;SDS011;38120;53.176;6.614;2022-07-29T11:49:51;8.63;;;3.60;;
52126;SDS011;38120;53.176;6.614;2022-07-29T11:52:17;8.90;;;3.50;;
52126;SDS011;38120;53.176;6.614;2022-07-29T11:54:44;7.65;;;3.08;;
52126;SDS011;38120;53.176;6.614;2022-07-29T11:57:13;8.82;;;2.88;;
52126;SDS011;38120;53.176;6.614;2022-07-29T11:59:42;6.38;;;3.05;;
52126;SDS011;38120;53.176;6.614;2022-07-29T12:02:09;10.43;;;3.17;;
52126;SDS011;38120;53.176;6.614;2022-07-29T12:07:35;5.60;;;3.20;;
52126;SDS011;38120;53.176;6.614;2022-07-29T12:10:02;6.97;;;2.90;;
52126;SDS011;38120;53.176;6.614;2022-07-29T12:12:29;5.80;;;2.88;;
52126;SDS011;38120;53.176;6.614;2022-07-29T12:14:54;10.05;;;3.30;;
52126;SDS011;38120;53.176;6.614;2022-07-29T12:19:57;9.65;;;3.40;;
52126;SDS011;38120;53.176;6.614;2022-07-29T12:22:42;8.00;;;3.38;;
52126;SDS011;38120;53.176;6.614;2022-07-29T12:25:15;8.27;;;3.10;;
52126;SDS011;38120;53.176;6.614;2022-07-29T12:27:42;6.82;;;3.38;;
52126;SDS011;38120;53.176;6.614;2022-07-29T12:30:15;5.00;;;2.55;;
52126;SDS011;38120;53.176;6.614;2022-07-29T12:32:42;7.97;;;2.60;;
52126;SDS011;38120;53.176;6.614;2022-07-29T12:35:11;5.97;;;2.80;;
52126;SDS011;38120;53.176;6.614;2022-07-29T12:37:39;6.85;;;2.55;;
52126;SDS011;38120;53.176;6.614;2022-07-29T12:40:07;9.10;;;2.72;;
52126;SDS011;38120;53.176;6.614;2022-07-29T12:42:34;4.82;;;2.30;;
52126;SDS011;38120;53.176;6.614;2022-07-29T12:47:27;6.13;;;2.60;;
52126;SDS011;38120;53.176;6.614;2022-07-29T12:50:10;4.88;;;2.75;;
52126;SDS011;38120;53.176;6.614;2022-07-29T12:52:39;5.60;;;2.47;;
52126;SDS011;38120;53.176;6.614;2022-07-29T12:57:31;5.35;;;2.45;;
52126;SDS011;38120;53.176;6.614;2022-07-29T13:00:10;5.68;;;3.30;;
52126;SDS011;38120;53.176;6.614;2022-07-29T13:02:38;8.65;;;3.35;;
52126;SDS011;38120;53.176;6.614;2022-07-29T13:05:06;7.90;;;3.17;;
52126;SDS011;38120;53.176;6.614;2022-07-29T13:07:33;7.60;;;2.92;;
52126;SDS011;38120;53.176;6.614;2022-07-29T13:10:17;8.38;;;3.30;;
52126;SDS011;38120;53.176;6.614;2022-07-29T13:13:00;7.20;;;3.03;;
52126;SDS011;38120;53.176;6.614;2022-07-29T13:15:37;5.07;;;3.08;;
52126;SDS011;38120;53.176;6.614;2022-07-29T13:18:04;7.38;;;2.50;;
52126;SDS011;38120;53.176;6.614;2022-07-29T13:20:50;6.22;;;2.58;;
52126;SDS011;38120;53.176;6.614;2022-07-29T13:23:16;7.32;;;3.10;;
52126;SDS011;38120;53.176;6.614;2022-07-29T13:25:42;7.18;;;2.80;;
52126;SDS011;38120;53.176;6.614;2022-07-29T13:28:07;9.75;;;2.90;;
52126;SDS011;38120;53.176;6.614;2022-07-29T13:30:33;7.70;;;3.10;;
52126;SDS011;38120;53.176;6.614;2022-07-29T13:32:59;8.05;;;3.08;;
52126;SDS011;38120;53.176;6.614;2022-07-29T13:35:25;3.03;;;2.00;;
52126;SDS011;38120;53.176;6.614;2022-07-29T13:37:50;6.35;;;2.50;;
52126;SDS011;38120;53.176;6.614;2022-07-29T13:40:17;6.70;;;2.95;;
52126;SDS011;38120;53.176;6.614;2022-07-29T13:42:42;10.57;;;2.72;;
52126;SDS011;38120;53.176;6.614;2022-07-29T13:45:08;9.10;;;2.85;;
52126;SDS011;38120;53.176;6.614;2022-07-29T13:47:35;7.68;;;2.65;;
52126;SDS011;38120;53.176;6.614;2022-07-29T13:50:07;6.78;;;2.20;;
52126;SDS011;38120;53.176;6.614;2022-07-29T13:52:35;7.05;;;2.30;;
52126;SDS011;38120;53.176;6.614;2022-07-29T13:55:01;5.63;;;2.08;;
52126;SDS011;38120;53.176;6.614;2022-07-29T13:57:28;3.88;;;2.15;;
52126;SDS011;38120;53.176;6.614;2022-07-29T13:59:54;5.20;;;2.22;;
52126;SDS011;38120;53.176;6.614;2022-07-29T14:02:20;6.40;;;1.98;;
52126;SDS011;38120;53.176;6.614;2022-07-29T14:04:53;5.95;;;2.20;;
52126;SDS011;38120;53.176;6.614;2022-07-29T14:07:19;6.03;;;2.22;;
52126;SDS011;38120;53.176;6.614;2022-07-29T14:12:10;5.75;;;2.00;;
52126;SDS011;38120;53.176;6.614;2022-07-29T14:14:36;8.88;;;2.60;;
52126;SDS011;38120;53.176;6.614;2022-07-29T14:19:28;7.57;;;2.17;;
52126;SDS011;38120;53.176;6.614;2022-07-29T14:24:19;10.70;;;2.20;;
52126;SDS011;38120;53.176;6.614;2022-07-29T14:29:10;6.25;;;2.15;;
52126;SDS011;38120;53.176;6.614;2022-07-29T14:34:02;6.75;;;1.70;;
52126;SDS011;38120;53.176;6.614;2022-07-29T14:38:54;5.75;;;2.22;;
52126;SDS011;38120;53.176;6.614;2022-07-29T14:43:46;6.35;;;2.05;;
52126;SDS011;38120;53.176;6.614;2022-07-29T14:48:38;6.18;;;2.25;;
52126;SDS011;38120;53.176;6.614;2022-07-29T14:53:29;8.55;;;2.63;;
52126;SDS011;38120;53.176;6.614;2022-07-29T14:55:57;5.25;;;1.98;;
52126;SDS011;38120;53.176;6.614;2022-07-29T15:00:48;6.13;;;2.53;;
52126;SDS011;38120;53.176;6.614;2022-07-29T15:05:40;5.90;;;2.35;;
52126;SDS011;38120;53.176;6.614;2022-07-29T15:10:33;4.43;;;1.75;;
52126;SDS011;38120;53.176;6.614;2022-07-29T15:15:24;4.93;;;1.85;;
52126;SDS011;38120;53.176;6.614;2022-07-29T15:17:50;7.35;;;1.77;;
52126;SDS011;38120;53.176;6.614;2022-07-29T15:22:42;4.55;;;1.83;;
52126;SDS011;38120;53.176;6.614;2022-07-29T15:27:33;4.70;;;1.88;;
52126;SDS011;38120;53.176;6.614;2022-07-29T15:32:25;7.47;;;2.45;;
52126;SDS011;38120;53.176;6.614;2022-07-29T15:34:51;7.00;;;2.00;;
52126;SDS011;38120;53.176;6.614;2022-07-29T15:39:42;5.43;;;1.95;;
52126;SDS011;38120;53.176;6.614;2022-07-29T15:44:33;6.57;;;2.45;;
52126;SDS011;38120;53.176;6.614;2022-07-29T15:49:28;8.25;;;2.28;;
52126;SDS011;38120;53.176;6.614;2022-07-29T15:52:02;7.20;;;2.00;;
52126;SDS011;38120;53.176;6.614;2022-07-29T15:54:33;7.22;;;2.15;;
52126;SDS011;38120;53.176;6.614;2022-07-29T15:57:00;5.57;;;2.30;;
52126;SDS011;38120;53.176;6.614;2022-07-29T15:59:27;6.03;;;1.83;;
52126;SDS011;38120;53.176;6.614;2022-07-29T16:04:18;6.50;;;2.25;;
52126;SDS011;38120;53.176;6.614;2022-07-29T16:09:10;5.82;;;2.10;;
52126;SDS011;38120;53.176;6.614;2022-07-29T16:11:37;5.30;;;2.47;;
52126;SDS011;38120;53.176;6.614;2022-07-29T16:16:28;3.72;;;1.67;;
52126;SDS011;38120;53.176;6.614;2022-07-29T16:21:20;9.27;;;2.78;;
52126;SDS011;38120;53.176;6.614;2022-07-29T16:23:48;8.10;;;2.58;;
52126;SDS011;38120;53.176;6.614;2022-07-29T16:28:40;4.03;;;1.90;;
52126;SDS011;38120;53.176;6.614;2022-07-29T16:33:32;5.05;;;2.13;;
52126;SDS011;38120;53.176;6.614;2022-07-29T16:35:57;9.27;;;2.85;;
52126;SDS011;38120;53.176;6.614;2022-07-29T16:40:49;5.10;;;1.98;;
52126;SDS011;38120;53.176;6.614;2022-07-29T16:43:29;6.53;;;2.50;;
52126;SDS011;38120;53.176;6.614;2022-07-29T16:48:20;4.53;;;2.08;;
52126;SDS011;38120;53.176;6.614;2022-07-29T16:50:52;7.63;;;2.22;;
52126;SDS011;38120;53.176;6.614;2022-07-29T16:53:17;6.53;;;2.22;;
52126;SDS011;38120;53.176;6.614;2022-07-29T16:58:09;5.95;;;2.08;;
52126;SDS011;38120;53.176;6.614;2022-07-29T17:00:41;9.68;;;2.33;;
52126;SDS011;38120;53.176;6.614;2022-07-29T17:03:07;7.82;;;2.45;;
52126;SDS011;38120;53.176;6.614;2022-07-29T17:05:32;9.10;;;2.60;;
52126;SDS011;38120;53.176;6.614;2022-07-29T17:07:58;5.78;;;2.00;;
52126;SDS011;38120;53.176;6.614;2022-07-29T17:12:50;4.03;;;2.10;;
52126;SDS011;38120;53.176;6.614;2022-07-29T17:17:42;4.05;;;2.10;;
52126;SDS011;38120;53.176;6.614;2022-07-29T17:20:09;7.53;;;2.85;;
52126;SDS011;38120;53.176;6.614;2022-07-29T17:22:36;12.80;;;2.85;;
52126;SDS011;38120;53.176;6.614;2022-07-29T17:25:03;6.13;;;2.28;;
52126;SDS011;38120;53.176;6.614;2022-07-29T17:27:29;5.10;;;2.30;;
52126;SDS011;38120;53.176;6.614;2022-07-29T17:29:56;5.30;;;2.13;;
52126;SDS011;38120;53.176;6.614;2022-07-29T17:32:22;6.32;;;2.22;;
52126;SDS011;38120;53.176;6.614;2022-07-29T17:34:48;5.13;;;2.22;;
52126;SDS011;38120;53.176;6.614;2022-07-29T17:37:16;7.93;;;2.65;;